Elgin, IL (60120)

8:32 PM CDT en Octubre 21, 2014 (GMT -0500)
Trout Park | Change Station
CLOSE
Current Station
Estación meteorológica personal
Location: Elgin, IL
Altura: 817 ft
Estaciones meteorológicas cercanas

Alt 817 ft 42.06 °N, 88.27 °W | Updated 9 seconds ago

Parcialmente nublado
Parcialmente nublado
41.7 ° F
Sensación térmica 42 ° F
N
0.0
Viento Variable Viento desde NE
Gusts 0.0 mph

Hoy
Alta -- | Baja -- ° F
--% Posibilidad de precipitaciones
Ayer
Alta -- | Baja -- ° F
Precip. -- pul
7:12 AM 6:02 PM
Creciente menguante, 3% visible
Presión 30.26 pul
Visibilidad 10.0 Millas
Nubes Nubes dispersas 2800 ft
Vientos helados 42 ° F
Punto de rocío 35 ° F
Humedad 78%
Precipitaciones 0.00 pul
Espesor de la nieve No disponible.
UV 0 de una escala de 12
Polen 1.60 de una escala de 12
Ozono Buena
PM2.5 Buena
Flu Activity No Activity
METAR KDPA 220052Z 01006KT 10SM SCT028 06/02 A3024 RMK AO2 SLP246 T00610022

More Conditions Fewer Conditions

Presión 30.26 pul
Visibilidad 10.0 Millas
Nubes Nubes dispersas 2800 ft
Vientos helados 42 ° F
Punto de rocío 35 ° F
Humedad 78%
Precipitaciones 0.00 pul
Espesor de la nieve No disponible.
UV 0 de una escala de 12
Polen 1.60 de una escala de 12
Ozono Buena
PM2.5 Buena
Flu Activity No Activity
METAR KDPA 220052Z 01006KT 10SM SCT028 06/02 A3024 RMK AO2 SLP246 T00610022

More Conditions Fewer Conditions

10-Day Weather Forecast

Almanac

Astronomía

Oct. 21, 2014 Salida Puesta
Hora real 7:12 AM CDT 6:02 PM CDT
Crepúsculo civil 6:44 AM CDT 6:30 PM CDT
Crepúsculo náutico 6:11 AM CDT 7:02 PM CDT
Crepúsculo astronómico 5:39 AM CDT 7:35 PM CDT
Luna 4:54 AM CDT (10/21) 4:57 PM CDT (10/21)
Horas de luz 11h 46m
Horas de luz
10h 49m
Tomorrow will be 2m 40s shorter.
Creciente menguante, 3% of the Moon is Illuminated
Hoy
Creciente menguante
Oct 23
Nueva
Oct 30
Cuarto creciente
Nov 6
Luna llena
Nov 14
Cuarto menguante

Extremos de hoy

Máximos del estado Bajos del estado

Community

WunderPhotos

Upload Photos

1,763,844 ¡fotos cargadas!

Nearby

Calidad del aire

  Calidad del aire Índice AQ Contaminante
Ayer Buena
PM2.5
Ayer Buena
OZONE
Real Buena
OZONE
Real Buena
PM2.5
Martes Buena
PM2.5
Miércoles Buena
PM2.5
Jueves Moderada
PM2.5
Viernes Buena
PM2.5
Sábado Moderada
PM2.5
Domingo Moderada
PM2.5

Grosos de nieve

Estación Profundido Altura
No tenemos constancia de nieve nueva.

Actividad de terremotos

Ciudad Distance Mag. Tiempo y dato
No hay informes recientes de la actividad sísmica.
Magnitud mínima muestra es 2,5.

Temperaturas de aguas costeras

Lugar Temperatura
Sin partes meteorológicos de las estaciones

Estaciones meteorológicas cercanas